Terminal Aerodrome Forecast
Issued by NWS

Home | Current Version | Previous Version | Text Only | Print | Product List | Glossary On
Versions: 1 2 3 4 5 6 7 8 9 10 11 12 13 14 15 16
000
FTAK31 PANC 170522
TAFAIL
TAF
PAIL 170522Z 1706/1806 15005KT P6SM VCSH SCT025 BKN035 OVC050
      TEMPO 1706/1710 P6SM -SHRA BKN025
     FM171200 13007KT P6SM -SHRA SCT008 OVC012
     FM172000 17007KT P6SM VCSH SCT012 BKN020 OVC030=

USA.gov is the U.S. government's official web portal to all federal, state and local government web resources and services.